sensor_id;sensor_type;location;lat;lon;timestamp;P1;durP1;ratioP1;P2;durP2;ratioP2
68744;SDS011;73143;45.456;11.064;2024-02-26T00:01:18;9.90;;;6.60;;
68744;SDS011;73143;45.456;11.064;2024-02-26T00:03:54;8.60;;;6.10;;
68744;SDS011;73143;45.456;11.064;2024-02-26T00:06:31;8.80;;;6.40;;
68744;SDS011;73143;45.456;11.064;2024-02-26T00:09:09;10.50;;;6.60;;
68744;SDS011;73143;45.456;11.064;2024-02-26T00:11:45;8.80;;;6.20;;
68744;SDS011;73143;45.456;11.064;2024-02-26T00:14:22;8.30;;;6.10;;
68744;SDS011;73143;45.456;11.064;2024-02-26T00:16:59;10.80;;;6.10;;
68744;SDS011;73143;45.456;11.064;2024-02-26T00:19:37;11.70;;;6.10;;
68744;SDS011;73143;45.456;11.064;2024-02-26T00:22:14;8.00;;;6.00;;
68744;SDS011;73143;45.456;11.064;2024-02-26T00:24:52;9.60;;;6.00;;
68744;SDS011;73143;45.456;11.064;2024-02-26T00:27:28;8.90;;;5.30;;
68744;SDS011;73143;45.456;11.064;2024-02-26T00:30:08;11.80;;;5.70;;
68744;SDS011;73143;45.456;11.064;2024-02-26T00:32:47;10.60;;;6.20;;
68744;SDS011;73143;45.456;11.064;2024-02-26T00:35:23;13.50;;;5.30;;
68744;SDS011;73143;45.456;11.064;2024-02-26T00:38:01;11.30;;;5.20;;
68744;SDS011;73143;45.456;11.064;2024-02-26T00:40:39;9.30;;;5.40;;
68744;SDS011;73143;45.456;11.064;2024-02-26T00:43:16;9.70;;;5.30;;
68744;SDS011;73143;45.456;11.064;2024-02-26T00:45:53;8.00;;;4.30;;
68744;SDS011;73143;45.456;11.064;2024-02-26T00:48:30;9.00;;;4.40;;
68744;SDS011;73143;45.456;11.064;2024-02-26T00:51:08;7.90;;;4.70;;
68744;SDS011;73143;45.456;11.064;2024-02-26T00:53:45;6.20;;;4.10;;
68744;SDS011;73143;45.456;11.064;2024-02-26T00:56:22;7.30;;;4.20;;
68744;SDS011;73143;45.456;11.064;2024-02-26T00:59:00;5.60;;;3.60;;
68744;SDS011;73143;45.456;11.064;2024-02-26T01:01:39;8.20;;;4.00;;
68744;SDS011;73143;45.456;11.064;2024-02-26T01:04:16;5.80;;;3.30;;
68744;SDS011;73143;45.456;11.064;2024-02-26T01:06:53;7.00;;;3.70;;
68744;SDS011;73143;45.456;11.064;2024-02-26T01:09:30;7.20;;;3.40;;
68744;SDS011;73143;45.456;11.064;2024-02-26T01:12:10;4.70;;;3.30;;
68744;SDS011;73143;45.456;11.064;2024-02-26T01:14:48;5.80;;;3.40;;
68744;SDS011;73143;45.456;11.064;2024-02-26T01:17:25;4.60;;;2.90;;
68744;SDS011;73143;45.456;11.064;2024-02-26T01:20:03;7.50;;;3.50;;
68744;SDS011;73143;45.456;11.064;2024-02-26T01:22:44;5.60;;;3.20;;
68744;SDS011;73143;45.456;11.064;2024-02-26T01:25:21;4.80;;;3.20;;
68744;SDS011;73143;45.456;11.064;2024-02-26T01:27:58;6.90;;;3.60;;
68744;SDS011;73143;45.456;11.064;2024-02-26T01:30:37;5.80;;;3.50;;
68744;SDS011;73143;45.456;11.064;2024-02-26T01:33:13;6.40;;;3.50;;
68744;SDS011;73143;45.456;11.064;2024-02-26T01:35:50;6.90;;;3.60;;
68744;SDS011;73143;45.456;11.064;2024-02-26T01:38:27;5.80;;;3.40;;
68744;SDS011;73143;45.456;11.064;2024-02-26T01:41:05;5.80;;;3.30;;
68744;SDS011;73143;45.456;11.064;2024-02-26T01:43:42;6.30;;;3.50;;
68744;SDS011;73143;45.456;11.064;2024-02-26T01:46:20;5.90;;;3.10;;
68744;SDS011;73143;45.456;11.064;2024-02-26T01:48:58;6.60;;;3.50;;
68744;SDS011;73143;45.456;11.064;2024-02-26T01:51:35;7.30;;;4.10;;
68744;SDS011;73143;45.456;11.064;2024-02-26T01:54:14;7.30;;;3.60;;
68744;SDS011;73143;45.456;11.064;2024-02-26T01:56:53;6.70;;;3.50;;
68744;SDS011;73143;45.456;11.064;2024-02-26T01:59:32;5.30;;;3.40;;
68744;SDS011;73143;45.456;11.064;2024-02-26T02:02:10;6.30;;;3.70;;
68744;SDS011;73143;45.456;11.064;2024-02-26T02:04:49;6.00;;;3.50;;
68744;SDS011;73143;45.456;11.064;2024-02-26T02:07:27;5.60;;;3.30;;
68744;SDS011;73143;45.456;11.064;2024-02-26T02:10:07;5.10;;;3.40;;
68744;SDS011;73143;45.456;11.064;2024-02-26T02:12:45;6.00;;;3.10;;
68744;SDS011;73143;45.456;11.064;2024-02-26T02:15:22;7.30;;;3.50;;
68744;SDS011;73143;45.456;11.064;2024-02-26T02:17:59;6.70;;;3.70;;
68744;SDS011;73143;45.456;11.064;2024-02-26T02:20:37;5.00;;;3.30;;
68744;SDS011;73143;45.456;11.064;2024-02-26T02:23:15;6.60;;;3.80;;
68744;SDS011;73143;45.456;11.064;2024-02-26T02:25:52;6.00;;;3.80;;
68744;SDS011;73143;45.456;11.064;2024-02-26T02:28:33;7.70;;;3.70;;
68744;SDS011;73143;45.456;11.064;2024-02-26T02:31:10;6.20;;;4.10;;
68744;SDS011;73143;45.456;11.064;2024-02-26T02:33:49;6.90;;;3.90;;
68744;SDS011;73143;45.456;11.064;2024-02-26T02:36:26;6.40;;;4.00;;
68744;SDS011;73143;45.456;11.064;2024-02-26T02:39:03;5.60;;;3.90;;
68744;SDS011;73143;45.456;11.064;2024-02-26T02:41:41;6.80;;;4.00;;
68744;SDS011;73143;45.456;11.064;2024-02-26T02:44:18;5.80;;;4.30;;
68744;SDS011;73143;45.456;11.064;2024-02-26T02:46:56;6.20;;;4.10;;
68744;SDS011;73143;45.456;11.064;2024-02-26T02:49:33;7.50;;;4.60;;
68744;SDS011;73143;45.456;11.064;2024-02-26T02:52:10;7.20;;;4.50;;
68744;SDS011;73143;45.456;11.064;2024-02-26T02:54:47;7.50;;;4.40;;
68744;SDS011;73143;45.456;11.064;2024-02-26T02:57:24;6.90;;;4.50;;
68744;SDS011;73143;45.456;11.064;2024-02-26T03:00:01;5.60;;;4.30;;
68744;SDS011;73143;45.456;11.064;2024-02-26T03:02:38;9.50;;;3.90;;
68744;SDS011;73143;45.456;11.064;2024-02-26T03:05:17;6.50;;;4.60;;
68744;SDS011;73143;45.456;11.064;2024-02-26T03:07:54;5.80;;;4.20;;
68744;SDS011;73143;45.456;11.064;2024-02-26T03:10:30;6.70;;;4.60;;
68744;SDS011;73143;45.456;11.064;2024-02-26T03:13:08;6.30;;;4.40;;
68744;SDS011;73143;45.456;11.064;2024-02-26T03:15:44;8.90;;;4.90;;
68744;SDS011;73143;45.456;11.064;2024-02-26T03:18:22;8.50;;;4.90;;
68744;SDS011;73143;45.456;11.064;2024-02-26T03:20:59;7.00;;;4.70;;
68744;SDS011;73143;45.456;11.064;2024-02-26T03:23:36;7.40;;;4.50;;
68744;SDS011;73143;45.456;11.064;2024-02-26T03:26:14;7.20;;;4.60;;
68744;SDS011;73143;45.456;11.064;2024-02-26T03:28:51;7.50;;;4.20;;
68744;SDS011;73143;45.456;11.064;2024-02-26T03:31:27;8.40;;;4.40;;
68744;SDS011;73143;45.456;11.064;2024-02-26T03:34:05;6.70;;;4.60;;
68744;SDS011;73143;45.456;11.064;2024-02-26T03:36:47;8.60;;;4.50;;
68744;SDS011;73143;45.456;11.064;2024-02-26T03:39:24;7.30;;;4.80;;
68744;SDS011;73143;45.456;11.064;2024-02-26T03:42:01;8.30;;;5.20;;
68744;SDS011;73143;45.456;11.064;2024-02-26T03:44:39;7.80;;;4.40;;
68744;SDS011;73143;45.456;11.064;2024-02-26T03:47:17;7.10;;;4.20;;
68744;SDS011;73143;45.456;11.064;2024-02-26T03:49:54;5.70;;;3.90;;
68744;SDS011;73143;45.456;11.064;2024-02-26T03:52:32;6.60;;;4.70;;
68744;SDS011;73143;45.456;11.064;2024-02-26T03:55:10;6.50;;;4.50;;
68744;SDS011;73143;45.456;11.064;2024-02-26T03:57:47;6.80;;;4.10;;
68744;SDS011;73143;45.456;11.064;2024-02-26T04:00:25;6.50;;;4.20;;
68744;SDS011;73143;45.456;11.064;2024-02-26T04:03:02;7.60;;;4.70;;
68744;SDS011;73143;45.456;11.064;2024-02-26T04:05:40;6.00;;;4.30;;
68744;SDS011;73143;45.456;11.064;2024-02-26T04:08:17;7.40;;;4.60;;
68744;SDS011;73143;45.456;11.064;2024-02-26T04:10:54;6.50;;;3.80;;
68744;SDS011;73143;45.456;11.064;2024-02-26T04:13:31;6.00;;;3.90;;
68744;SDS011;73143;45.456;11.064;2024-02-26T04:16:10;10.00;;;4.00;;
68744;SDS011;73143;45.456;11.064;2024-02-26T04:18:48;8.50;;;4.40;;
68744;SDS011;73143;45.456;11.064;2024-02-26T04:21:25;6.70;;;4.10;;
68744;SDS011;73143;45.456;11.064;2024-02-26T04:24:02;6.50;;;4.30;;
68744;SDS011;73143;45.456;11.064;2024-02-26T04:26:41;6.10;;;4.00;;
68744;SDS011;73143;45.456;11.064;2024-02-26T04:29:17;5.80;;;3.80;;
68744;SDS011;73143;45.456;11.064;2024-02-26T04:31:55;6.80;;;4.40;;
68744;SDS011;73143;45.456;11.064;2024-02-26T04:34:32;6.10;;;4.00;;
68744;SDS011;73143;45.456;11.064;2024-02-26T04:37:09;7.10;;;4.30;;
68744;SDS011;73143;45.456;11.064;2024-02-26T04:39:47;6.40;;;4.00;;
68744;SDS011;73143;45.456;11.064;2024-02-26T04:42:24;6.20;;;3.70;;
68744;SDS011;73143;45.456;11.064;2024-02-26T04:45:02;7.00;;;3.70;;
68744;SDS011;73143;45.456;11.064;2024-02-26T04:47:41;5.80;;;3.60;;
68744;SDS011;73143;45.456;11.064;2024-02-26T04:50:18;6.00;;;4.00;;
68744;SDS011;73143;45.456;11.064;2024-02-26T04:52:54;5.50;;;3.60;;
68744;SDS011;73143;45.456;11.064;2024-02-26T04:55:31;5.30;;;3.80;;
68744;SDS011;73143;45.456;11.064;2024-02-26T04:58:08;5.90;;;3.90;;
68744;SDS011;73143;45.456;11.064;2024-02-26T05:00:45;5.30;;;3.80;;
68744;SDS011;73143;45.456;11.064;2024-02-26T05:03:23;7.20;;;3.80;;
68744;SDS011;73143;45.456;11.064;2024-02-26T05:06:00;5.30;;;3.50;;
68744;SDS011;73143;45.456;11.064;2024-02-26T05:08:38;4.20;;;3.20;;
68744;SDS011;73143;45.456;11.064;2024-02-26T05:11:16;7.00;;;3.90;;
68744;SDS011;73143;45.456;11.064;2024-02-26T05:13:53;10.30;;;4.30;;
68744;SDS011;73143;45.456;11.064;2024-02-26T05:16:30;5.10;;;3.70;;
68744;SDS011;73143;45.456;11.064;2024-02-26T05:19:08;9.30;;;4.30;;
68744;SDS011;73143;45.456;11.064;2024-02-26T05:21:46;8.30;;;4.00;;
68744;SDS011;73143;45.456;11.064;2024-02-26T05:24:24;5.90;;;3.80;;
68744;SDS011;73143;45.456;11.064;2024-02-26T05:27:01;6.50;;;3.60;;
68744;SDS011;73143;45.456;11.064;2024-02-26T05:29:39;4.70;;;3.50;;
68744;SDS011;73143;45.456;11.064;2024-02-26T05:32:16;6.20;;;4.00;;
68744;SDS011;73143;45.456;11.064;2024-02-26T05:34:53;8.30;;;3.70;;
68744;SDS011;73143;45.456;11.064;2024-02-26T05:37:31;4.40;;;3.30;;
68744;SDS011;73143;45.456;11.064;2024-02-26T05:40:13;6.40;;;3.70;;
68744;SDS011;73143;45.456;11.064;2024-02-26T05:42:52;5.10;;;3.20;;
68744;SDS011;73143;45.456;11.064;2024-02-26T05:45:30;5.80;;;3.10;;
68744;SDS011;73143;45.456;11.064;2024-02-26T05:48:09;7.80;;;4.00;;
68744;SDS011;73143;45.456;11.064;2024-02-26T05:50:48;5.30;;;3.90;;
68744;SDS011;73143;45.456;11.064;2024-02-26T05:53:25;5.00;;;3.60;;
68744;SDS011;73143;45.456;11.064;2024-02-26T05:56:02;5.30;;;3.50;;
68744;SDS011;73143;45.456;11.064;2024-02-26T05:58:39;5.50;;;3.60;;
68744;SDS011;73143;45.456;11.064;2024-02-26T06:01:17;6.10;;;3.40;;
68744;SDS011;73143;45.456;11.064;2024-02-26T06:03:55;5.00;;;3.60;;
68744;SDS011;73143;45.456;11.064;2024-02-26T06:06:31;6.40;;;4.00;;
68744;SDS011;73143;45.456;11.064;2024-02-26T06:09:13;6.70;;;3.70;;
68744;SDS011;73143;45.456;11.064;2024-02-26T06:11:50;7.90;;;3.40;;
68744;SDS011;73143;45.456;11.064;2024-02-26T06:14:28;6.40;;;4.00;;
68744;SDS011;73143;45.456;11.064;2024-02-26T06:17:05;6.10;;;4.10;;
68744;SDS011;73143;45.456;11.064;2024-02-26T06:19:43;8.00;;;4.40;;
68744;SDS011;73143;45.456;11.064;2024-02-26T06:22:21;6.90;;;4.50;;
68744;SDS011;73143;45.456;11.064;2024-02-26T06:24:59;9.30;;;4.50;;
68744;SDS011;73143;45.456;11.064;2024-02-26T06:27:37;13.30;;;5.10;;
68744;SDS011;73143;45.456;11.064;2024-02-26T06:30:16;7.40;;;4.60;;
68744;SDS011;73143;45.456;11.064;2024-02-26T06:32:53;8.60;;;5.00;;
68744;SDS011;73143;45.456;11.064;2024-02-26T06:35:31;8.40;;;5.10;;
68744;SDS011;73143;45.456;11.064;2024-02-26T06:38:08;7.10;;;5.10;;
68744;SDS011;73143;45.456;11.064;2024-02-26T06:40:45;9.00;;;5.90;;
68744;SDS011;73143;45.456;11.064;2024-02-26T06:43:24;7.10;;;5.00;;
68744;SDS011;73143;45.456;11.064;2024-02-26T06:46:01;8.50;;;5.20;;
68744;SDS011;73143;45.456;11.064;2024-02-26T06:48:40;8.60;;;5.10;;
68744;SDS011;73143;45.456;11.064;2024-02-26T06:51:18;10.20;;;5.30;;
68744;SDS011;73143;45.456;11.064;2024-02-26T06:53:55;9.10;;;6.00;;
68744;SDS011;73143;45.456;11.064;2024-02-26T06:56:32;8.40;;;4.90;;
68744;SDS011;73143;45.456;11.064;2024-02-26T06:59:09;8.70;;;5.40;;
68744;SDS011;73143;45.456;11.064;2024-02-26T07:01:47;9.70;;;5.80;;
68744;SDS011;73143;45.456;11.064;2024-02-26T07:04:24;8.00;;;5.80;;
68744;SDS011;73143;45.456;11.064;2024-02-26T07:07:01;9.40;;;6.00;;
68744;SDS011;73143;45.456;11.064;2024-02-26T07:09:39;8.50;;;5.50;;
68744;SDS011;73143;45.456;11.064;2024-02-26T07:12:18;10.10;;;6.40;;
68744;SDS011;73143;45.456;11.064;2024-02-26T07:14:55;8.90;;;5.90;;
68744;SDS011;73143;45.456;11.064;2024-02-26T07:17:33;9.30;;;6.20;;
68744;SDS011;73143;45.456;11.064;2024-02-26T07:20:12;11.50;;;6.10;;
68744;SDS011;73143;45.456;11.064;2024-02-26T07:22:52;10.40;;;6.70;;
68744;SDS011;73143;45.456;11.064;2024-02-26T07:25:28;15.50;;;6.00;;
68744;SDS011;73143;45.456;11.064;2024-02-26T07:28:07;9.60;;;6.50;;
68744;SDS011;73143;45.456;11.064;2024-02-26T07:30:45;9.90;;;6.10;;
68744;SDS011;73143;45.456;11.064;2024-02-26T07:33:23;11.50;;;6.60;;
68744;SDS011;73143;45.456;11.064;2024-02-26T07:36:01;10.20;;;6.60;;
68744;SDS011;73143;45.456;11.064;2024-02-26T07:38:39;11.90;;;6.70;;
68744;SDS011;73143;45.456;11.064;2024-02-26T07:41:20;12.40;;;7.00;;
68744;SDS011;73143;45.456;11.064;2024-02-26T07:43:56;10.90;;;6.30;;
68744;SDS011;73143;45.456;11.064;2024-02-26T07:46:34;8.80;;;5.90;;
68744;SDS011;73143;45.456;11.064;2024-02-26T07:49:12;10.00;;;6.60;;
68744;SDS011;73143;45.456;11.064;2024-02-26T07:51:50;10.90;;;6.80;;
68744;SDS011;73143;45.456;11.064;2024-02-26T07:54:28;10.60;;;7.20;;
68744;SDS011;73143;45.456;11.064;2024-02-26T07:57:06;8.90;;;6.30;;
68744;SDS011;73143;45.456;11.064;2024-02-26T07:59:42;11.40;;;6.90;;
68744;SDS011;73143;45.456;11.064;2024-02-26T08:02:23;12.80;;;7.00;;
68744;SDS011;73143;45.456;11.064;2024-02-26T08:04:59;11.10;;;7.70;;
68744;SDS011;73143;45.456;11.064;2024-02-26T08:07:36;10.30;;;7.70;;
68744;SDS011;73143;45.456;11.064;2024-02-26T08:10:15;13.20;;;7.50;;
68744;SDS011;73143;45.456;11.064;2024-02-26T08:12:53;11.40;;;7.50;;
68744;SDS011;73143;45.456;11.064;2024-02-26T08:15:37;17.70;;;8.50;;
68744;SDS011;73143;45.456;11.064;2024-02-26T08:18:14;13.90;;;8.20;;
68744;SDS011;73143;45.456;11.064;2024-02-26T08:20:51;10.00;;;7.40;;
68744;SDS011;73143;45.456;11.064;2024-02-26T08:23:28;13.40;;;7.60;;
68744;SDS011;73143;45.456;11.064;2024-02-26T08:26:06;20.50;;;9.60;;
68744;SDS011;73143;45.456;11.064;2024-02-26T08:28:43;17.80;;;11.40;;
68744;SDS011;73143;45.456;11.064;2024-02-26T08:31:21;25.80;;;12.00;;
68744;SDS011;73143;45.456;11.064;2024-02-26T08:33:58;22.30;;;12.50;;
68744;SDS011;73143;45.456;11.064;2024-02-26T08:36:36;22.20;;;11.90;;
68744;SDS011;73143;45.456;11.064;2024-02-26T08:39:15;24.50;;;11.20;;
68744;SDS011;73143;45.456;11.064;2024-02-26T08:41:52;16.40;;;9.80;;
68744;SDS011;73143;45.456;11.064;2024-02-26T08:44:29;14.00;;;9.00;;
68744;SDS011;73143;45.456;11.064;2024-02-26T08:47:08;14.20;;;9.20;;
68744;SDS011;73143;45.456;11.064;2024-02-26T08:49:46;14.60;;;9.50;;
68744;SDS011;73143;45.456;11.064;2024-02-26T08:52:23;13.60;;;9.20;;
68744;SDS011;73143;45.456;11.064;2024-02-26T08:55:00;10.30;;;8.30;;
68744;SDS011;73143;45.456;11.064;2024-02-26T08:57:38;13.80;;;9.20;;
68744;SDS011;73143;45.456;11.064;2024-02-26T09:00:19;18.30;;;9.00;;
68744;SDS011;73143;45.456;11.064;2024-02-26T09:02:57;14.60;;;9.10;;
68744;SDS011;73143;45.456;11.064;2024-02-26T09:05:36;15.00;;;8.30;;
68744;SDS011;73143;45.456;11.064;2024-02-26T09:08:13;11.90;;;7.60;;
68744;SDS011;73143;45.456;11.064;2024-02-26T09:10:51;10.10;;;6.50;;
68744;SDS011;73143;45.456;11.064;2024-02-26T09:13:29;11.70;;;6.90;;
68744;SDS011;73143;45.456;11.064;2024-02-26T09:16:08;8.50;;;5.30;;
68744;SDS011;73143;45.456;11.064;2024-02-26T09:18:46;9.50;;;5.70;;
68744;SDS011;73143;45.456;11.064;2024-02-26T09:21:23;8.60;;;5.70;;
68744;SDS011;73143;45.456;11.064;2024-02-26T09:24:01;7.80;;;5.00;;
68744;SDS011;73143;45.456;11.064;2024-02-26T09:26:38;7.90;;;5.00;;
68744;SDS011;73143;45.456;11.064;2024-02-26T09:29:16;7.40;;;4.80;;
68744;SDS011;73143;45.456;11.064;2024-02-26T09:31:54;6.90;;;4.40;;
68744;SDS011;73143;45.456;11.064;2024-02-26T09:34:31;6.80;;;4.00;;
68744;SDS011;73143;45.456;11.064;2024-02-26T09:37:08;9.60;;;5.00;;
68744;SDS011;73143;45.456;11.064;2024-02-26T09:39:52;6.10;;;4.70;;
68744;SDS011;73143;45.456;11.064;2024-02-26T09:42:28;9.10;;;4.80;;
68744;SDS011;73143;45.456;11.064;2024-02-26T09:45:17;6.40;;;4.40;;
68744;SDS011;73143;45.456;11.064;2024-02-26T09:47:57;6.80;;;4.30;;
68744;SDS011;73143;45.456;11.064;2024-02-26T09:50:37;7.30;;;4.80;;
68744;SDS011;73143;45.456;11.064;2024-02-26T09:53:14;7.80;;;5.00;;
68744;SDS011;73143;45.456;11.064;2024-02-26T09:55:53;7.80;;;4.90;;
68744;SDS011;73143;45.456;11.064;2024-02-26T09:58:31;8.10;;;4.90;;
68744;SDS011;73143;45.456;11.064;2024-02-26T10:01:13;7.50;;;4.70;;
68744;SDS011;73143;45.456;11.064;2024-02-26T10:03:54;8.30;;;5.50;;
68744;SDS011;73143;45.456;11.064;2024-02-26T10:06:32;8.30;;;6.20;;
68744;SDS011;73143;45.456;11.064;2024-02-26T10:09:11;9.70;;;5.90;;
68744;SDS011;73143;45.456;11.064;2024-02-26T10:11:49;6.90;;;5.60;;
68744;SDS011;73143;45.456;11.064;2024-02-26T10:14:27;8.30;;;5.60;;
68744;SDS011;73143;45.456;11.064;2024-02-26T10:17:03;9.10;;;6.00;;
68744;SDS011;73143;45.456;11.064;2024-02-26T10:19:43;8.90;;;6.20;;
68744;SDS011;73143;45.456;11.064;2024-02-26T10:22:20;11.40;;;5.80;;
68744;SDS011;73143;45.456;11.064;2024-02-26T10:24:57;11.10;;;6.00;;
68744;SDS011;73143;45.456;11.064;2024-02-26T10:27:34;9.10;;;5.70;;
68744;SDS011;73143;45.456;11.064;2024-02-26T10:30:19;7.60;;;5.30;;
68744;SDS011;73143;45.456;11.064;2024-02-26T10:32:58;8.70;;;5.50;;
68744;SDS011;73143;45.456;11.064;2024-02-26T10:35:35;8.60;;;5.30;;
68744;SDS011;73143;45.456;11.064;2024-02-26T10:38:14;8.20;;;5.90;;
68744;SDS011;73143;45.456;11.064;2024-02-26T10:40:53;6.80;;;4.90;;
68744;SDS011;73143;45.456;11.064;2024-02-26T10:43:30;10.30;;;5.80;;
68744;SDS011;73143;45.456;11.064;2024-02-26T10:46:09;8.30;;;5.40;;
68744;SDS011;73143;45.456;11.064;2024-02-26T10:48:52;7.50;;;5.10;;
68744;SDS011;73143;45.456;11.064;2024-02-26T10:51:31;8.40;;;5.00;;
68744;SDS011;73143;45.456;11.064;2024-02-26T10:54:11;8.40;;;5.00;;
68744;SDS011;73143;45.456;11.064;2024-02-26T10:56:51;8.50;;;5.00;;
68744;SDS011;73143;45.456;11.064;2024-02-26T10:59:31;7.80;;;5.20;;
68744;SDS011;73143;45.456;11.064;2024-02-26T11:02:12;8.20;;;5.10;;
68744;SDS011;73143;45.456;11.064;2024-02-26T11:04:49;7.00;;;5.00;;
68744;SDS011;73143;45.456;11.064;2024-02-26T11:07:27;6.00;;;4.40;;
68744;SDS011;73143;45.456;11.064;2024-02-26T11:10:05;7.70;;;4.80;;
68744;SDS011;73143;45.456;11.064;2024-02-26T11:12:48;8.00;;;5.30;;
68744;SDS011;73143;45.456;11.064;2024-02-26T11:15:26;6.90;;;4.70;;
68744;SDS011;73143;45.456;11.064;2024-02-26T11:18:08;6.70;;;4.60;;
68744;SDS011;73143;45.456;11.064;2024-02-26T11:20:46;6.60;;;4.90;;
68744;SDS011;73143;45.456;11.064;2024-02-26T11:23:26;8.20;;;5.30;;
68744;SDS011;73143;45.456;11.064;2024-02-26T11:26:08;7.30;;;3.90;;
68744;SDS011;73143;45.456;11.064;2024-02-26T11:28:48;6.20;;;4.20;;
68744;SDS011;73143;45.456;11.064;2024-02-26T11:31:28;9.40;;;5.10;;
68744;SDS011;73143;45.456;11.064;2024-02-26T11:34:09;10.80;;;6.00;;
68744;SDS011;73143;45.456;11.064;2024-02-26T11:36:46;7.90;;;5.40;;
68744;SDS011;73143;45.456;11.064;2024-02-26T11:39:23;10.70;;;5.40;;
68744;SDS011;73143;45.456;11.064;2024-02-26T11:42:09;7.20;;;5.10;;
68744;SDS011;73143;45.456;11.064;2024-02-26T11:44:47;15.70;;;4.60;;
68744;SDS011;73143;45.456;11.064;2024-02-26T11:47:24;7.60;;;4.70;;
68744;SDS011;73143;45.456;11.064;2024-02-26T11:50:35;6.90;;;3.90;;
68744;SDS011;73143;45.456;11.064;2024-02-26T11:53:27;6.30;;;3.90;;
68744;SDS011;73143;45.456;11.064;2024-02-26T11:56:24;5.00;;;3.20;;
68744;SDS011;73143;45.456;11.064;2024-02-26T11:59:08;6.20;;;3.20;;
68744;SDS011;73143;45.456;11.064;2024-02-26T12:01:48;5.60;;;3.60;;
68744;SDS011;73143;45.456;11.064;2024-02-26T12:04:27;5.00;;;3.30;;
68744;SDS011;73143;45.456;11.064;2024-02-26T12:07:05;4.90;;;3.20;;
68744;SDS011;73143;45.456;11.064;2024-02-26T12:09:42;7.30;;;3.60;;
68744;SDS011;73143;45.456;11.064;2024-02-26T12:12:21;3.80;;;3.00;;
68744;SDS011;73143;45.456;11.064;2024-02-26T12:15:00;5.70;;;3.60;;
68744;SDS011;73143;45.456;11.064;2024-02-26T12:17:39;5.90;;;3.60;;
68744;SDS011;73143;45.456;11.064;2024-02-26T12:20:23;8.00;;;3.50;;
68744;SDS011;73143;45.456;11.064;2024-02-26T12:23:00;5.00;;;3.20;;
68744;SDS011;73143;45.456;11.064;2024-02-26T12:25:38;6.60;;;3.30;;
68744;SDS011;73143;45.456;11.064;2024-02-26T12:28:15;4.20;;;3.30;;
68744;SDS011;73143;45.456;11.064;2024-02-26T12:30:52;4.70;;;3.20;;
68744;SDS011;73143;45.456;11.064;2024-02-26T12:33:32;6.00;;;3.20;;
68744;SDS011;73143;45.456;11.064;2024-02-26T12:36:12;5.80;;;3.40;;
68744;SDS011;73143;45.456;11.064;2024-02-26T12:38:49;5.60;;;2.70;;
68744;SDS011;73143;45.456;11.064;2024-02-26T12:41:26;5.50;;;2.50;;
68744;SDS011;73143;45.456;11.064;2024-02-26T12:44:03;6.50;;;2.80;;
68744;SDS011;73143;45.456;11.064;2024-02-26T12:46:40;6.00;;;2.90;;
68744;SDS011;73143;45.456;11.064;2024-02-26T12:49:19;6.90;;;3.00;;
68744;SDS011;73143;45.456;11.064;2024-02-26T12:51:57;4.30;;;3.10;;
68744;SDS011;73143;45.456;11.064;2024-02-26T12:54:35;5.80;;;2.80;;
68744;SDS011;73143;45.456;11.064;2024-02-26T12:57:13;6.90;;;3.00;;
68744;SDS011;73143;45.456;11.064;2024-02-26T12:59:50;6.30;;;2.70;;
68744;SDS011;73143;45.456;11.064;2024-02-26T13:02:28;4.30;;;2.70;;
68744;SDS011;73143;45.456;11.064;2024-02-26T13:05:08;5.10;;;2.70;;
68744;SDS011;73143;45.456;11.064;2024-02-26T13:07:46;5.30;;;2.40;;
68744;SDS011;73143;45.456;11.064;2024-02-26T13:10:24;3.40;;;2.20;;
68744;SDS011;73143;45.456;11.064;2024-02-26T13:13:04;3.50;;;2.00;;
68744;SDS011;73143;45.456;11.064;2024-02-26T13:15:40;7.40;;;2.80;;
68744;SDS011;73143;45.456;11.064;2024-02-26T13:18:18;6.90;;;2.70;;
68744;SDS011;73143;45.456;11.064;2024-02-26T13:20:55;3.40;;;2.10;;
68744;SDS011;73143;45.456;11.064;2024-02-26T13:23:56;4.90;;;2.40;;
68744;SDS011;73143;45.456;11.064;2024-02-26T13:26:33;5.80;;;2.40;;
68744;SDS011;73143;45.456;11.064;2024-02-26T13:29:15;4.30;;;2.20;;
68744;SDS011;73143;45.456;11.064;2024-02-26T13:31:57;3.50;;;2.20;;
68744;SDS011;73143;45.456;11.064;2024-02-26T13:34:35;4.40;;;2.40;;
68744;SDS011;73143;45.456;11.064;2024-02-26T13:37:12;4.80;;;2.40;;
68744;SDS011;73143;45.456;11.064;2024-02-26T13:39:49;3.80;;;2.40;;
68744;SDS011;73143;45.456;11.064;2024-02-26T13:42:26;4.40;;;2.30;;
68744;SDS011;73143;45.456;11.064;2024-02-26T13:45:03;4.60;;;2.40;;
68744;SDS011;73143;45.456;11.064;2024-02-26T13:47:42;5.80;;;2.90;;
68744;SDS011;73143;45.456;11.064;2024-02-26T13:50:19;3.30;;;2.10;;
68744;SDS011;73143;45.456;11.064;2024-02-26T13:52:55;4.20;;;2.60;;
68744;SDS011;73143;45.456;11.064;2024-02-26T13:55:31;3.60;;;2.20;;
68744;SDS011;73143;45.456;11.064;2024-02-26T13:58:09;4.20;;;2.10;;
68744;SDS011;73143;45.456;11.064;2024-02-26T14:00:47;4.00;;;2.40;;
68744;SDS011;73143;45.456;11.064;2024-02-26T14:03:24;4.00;;;2.30;;
68744;SDS011;73143;45.456;11.064;2024-02-26T14:06:01;3.70;;;2.50;;
68744;SDS011;73143;45.456;11.064;2024-02-26T14:08:40;5.00;;;2.40;;
68744;SDS011;73143;45.456;11.064;2024-02-26T14:11:17;3.50;;;2.40;;
68744;SDS011;73143;45.456;11.064;2024-02-26T14:13:54;3.50;;;2.30;;
68744;SDS011;73143;45.456;11.064;2024-02-26T14:16:30;3.30;;;2.00;;
68744;SDS011;73143;45.456;11.064;2024-02-26T14:19:07;3.70;;;2.30;;
68744;SDS011;73143;45.456;11.064;2024-02-26T14:21:46;4.90;;;2.70;;
68744;SDS011;73143;45.456;11.064;2024-02-26T14:24:23;5.10;;;3.60;;
68744;SDS011;73143;45.456;11.064;2024-02-26T14:27:00;4.70;;;2.90;;
68744;SDS011;73143;45.456;11.064;2024-02-26T14:29:37;6.30;;;2.80;;
68744;SDS011;73143;45.456;11.064;2024-02-26T14:32:14;4.70;;;2.10;;
68744;SDS011;73143;45.456;11.064;2024-02-26T14:34:52;3.80;;;2.40;;
68744;SDS011;73143;45.456;11.064;2024-02-26T14:37:30;5.30;;;2.80;;
68744;SDS011;73143;45.456;11.064;2024-02-26T14:40:10;5.10;;;2.80;;
68744;SDS011;73143;45.456;11.064;2024-02-26T14:42:49;4.90;;;2.80;;
68744;SDS011;73143;45.456;11.064;2024-02-26T14:45:26;5.10;;;2.70;;
68744;SDS011;73143;45.456;11.064;2024-02-26T14:48:05;4.40;;;2.60;;
68744;SDS011;73143;45.456;11.064;2024-02-26T14:50:44;4.30;;;2.80;;
68744;SDS011;73143;45.456;11.064;2024-02-26T14:53:22;4.80;;;3.10;;
68744;SDS011;73143;45.456;11.064;2024-02-26T14:55:59;4.00;;;2.70;;
68744;SDS011;73143;45.456;11.064;2024-02-26T14:58:37;4.90;;;3.20;;
68744;SDS011;73143;45.456;11.064;2024-02-26T15:01:13;6.70;;;2.70;;
68744;SDS011;73143;45.456;11.064;2024-02-26T15:03:51;5.40;;;3.00;;
68744;SDS011;73143;45.456;11.064;2024-02-26T15:06:28;5.10;;;2.90;;
68744;SDS011;73143;45.456;11.064;2024-02-26T15:09:07;4.90;;;2.80;;
68744;SDS011;73143;45.456;11.064;2024-02-26T15:11:50;5.40;;;2.70;;
68744;SDS011;73143;45.456;11.064;2024-02-26T15:14:28;6.10;;;3.80;;
68744;SDS011;73143;45.456;11.064;2024-02-26T15:17:06;6.60;;;3.70;;
68744;SDS011;73143;45.456;11.064;2024-02-26T15:19:44;4.20;;;2.70;;
68744;SDS011;73143;45.456;11.064;2024-02-26T15:22:21;3.80;;;2.50;;
68744;SDS011;73143;45.456;11.064;2024-02-26T15:24:58;3.90;;;2.90;;
68744;SDS011;73143;45.456;11.064;2024-02-26T15:27:34;4.10;;;2.20;;
68744;SDS011;73143;45.456;11.064;2024-02-26T15:30:15;4.10;;;2.00;;
68744;SDS011;73143;45.456;11.064;2024-02-26T15:32:53;3.80;;;2.00;;
68744;SDS011;73143;45.456;11.064;2024-02-26T15:35:29;3.70;;;2.30;;
68744;SDS011;73143;45.456;11.064;2024-02-26T15:38:06;3.50;;;2.30;;